createdAt,value
2023-01-20T00:02:35.336Z,19.23
2023-01-20T00:07:39.587Z,19.26
2023-01-20T00:12:42.423Z,19.22
2023-01-20T00:17:45.295Z,19.19
2023-01-20T00:22:49.459Z,19.16
2023-01-20T00:27:53.435Z,19.11
2023-01-20T00:32:56.463Z,19.09
2023-01-20T00:38:00.645Z,19.05
2023-01-20T00:43:03.553Z,19.01
2023-01-20T00:48:06.978Z,18.96
2023-01-20T00:53:11.095Z,18.96
2023-01-20T00:58:13.912Z,18.92
2023-01-20T01:03:16.728Z,18.88
2023-01-20T01:08:20.998Z,18.87
2023-01-20T01:13:23.770Z,18.81
2023-01-20T01:18:26.693Z,18.78
2023-01-20T01:23:30.883Z,18.76
2023-01-20T01:28:33.671Z,18.76
2023-01-20T01:33:36.619Z,18.72
2023-01-20T01:38:40.906Z,18.71
2023-01-20T01:44:01.796Z,18.69
2023-01-20T01:49:05.606Z,18.72
2023-01-20T01:54:12.479Z,18.71
2023-01-20T01:59:15.275Z,18.70
2023-01-20T02:04:20.939Z,18.68
2023-01-20T02:09:25.370Z,18.65
2023-01-20T02:14:29.943Z,18.63
2023-01-20T02:20:08.007Z,18.59
2023-01-20T02:25:47.739Z,18.60
2023-01-20T02:30:58.002Z,18.59
2023-01-20T02:36:04.524Z,18.51
2023-01-20T02:41:09.277Z,18.48
2023-01-20T02:46:14.936Z,18.45
2023-01-20T02:51:20.421Z,18.43
2023-01-20T02:56:26.033Z,18.42
2023-01-20T03:01:31.730Z,18.41
2023-01-20T03:06:37.141Z,18.41
2023-01-20T03:11:42.159Z,18.40
2023-01-20T03:16:48.126Z,18.39
2023-01-20T03:21:52.331Z,18.39
2023-01-20T03:26:55.292Z,18.39
2023-01-20T03:31:59.000Z,18.38
2023-01-20T03:37:03.268Z,18.36
2023-01-20T03:42:08.671Z,18.37
2023-01-20T03:47:14.629Z,18.35
2023-01-20T03:52:19.443Z,18.33
2023-01-20T03:57:23.949Z,18.35
2023-01-20T04:02:27.116Z,18.34
2023-01-20T04:07:31.774Z,18.33
2023-01-20T04:12:34.642Z,18.32
2023-01-20T04:17:37.424Z,18.32
2023-01-20T04:22:45.087Z,18.31
2023-01-20T04:27:47.813Z,18.31
2023-01-20T04:32:50.570Z,18.30
2023-01-20T04:37:54.796Z,18.32
2023-01-20T04:42:57.836Z,18.33
2023-01-20T04:48:00.586Z,18.30
2023-01-20T04:53:04.695Z,18.32
2023-01-20T04:58:07.489Z,18.29
2023-01-20T05:03:10.331Z,18.28
2023-01-20T05:08:14.466Z,18.27
2023-01-20T05:13:17.375Z,18.25
2023-01-20T05:18:20.187Z,18.26
2023-01-20T05:23:24.378Z,18.25
2023-01-20T05:28:27.228Z,18.23
2023-01-20T05:33:30.129Z,18.22
2023-01-20T05:38:34.327Z,18.23
2023-01-20T05:43:37.118Z,18.22
2023-01-20T05:48:39.902Z,18.21
2023-01-20T05:53:44.030Z,18.21
2023-01-20T05:58:46.829Z,18.20
2023-01-20T06:03:49.907Z,18.20
2023-01-20T06:08:54.361Z,18.18
2023-01-20T06:13:57.124Z,18.18
2023-01-20T06:19:00.094Z,18.17
2023-01-20T06:24:04.414Z,18.17
2023-01-20T06:29:07.228Z,18.16
2023-01-20T06:34:11.344Z,18.16
2023-01-20T06:39:15.551Z,18.16
2023-01-20T06:44:18.340Z,18.15
2023-01-20T06:49:21.173Z,18.14
2023-01-20T06:54:25.693Z,18.14
2023-01-20T06:59:28.477Z,18.11
2023-01-20T07:04:31.405Z,18.12
2023-01-20T07:09:35.601Z,18.11
2023-01-20T07:14:38.525Z,18.10
2023-01-20T07:19:41.357Z,18.09
2023-01-20T07:24:45.645Z,18.08
2023-01-20T07:29:48.430Z,18.07
2023-01-20T07:34:51.310Z,18.06
2023-01-20T07:39:55.561Z,18.06
2023-01-20T07:44:58.315Z,18.07
2023-01-20T07:50:01.073Z,18.06
2023-01-20T07:55:05.928Z,18.07
2023-01-20T08:00:10.441Z,18.08
2023-01-20T08:05:13.679Z,18.09
2023-01-20T08:10:18.348Z,17.89
2023-01-20T08:15:21.079Z,15.12
2023-01-20T08:20:23.907Z,14.04
2023-01-20T08:25:28.059Z,13.38
2023-01-20T08:30:30.862Z,14.81
2023-01-20T08:35:35.457Z,15.81
2023-01-20T08:40:42.188Z,16.44
2023-01-20T08:45:45.036Z,16.90
2023-01-20T08:50:47.767Z,17.24
2023-01-20T08:55:58.563Z,17.51
2023-01-20T09:01:01.592Z,17.73
2023-01-20T09:06:04.670Z,17.92
2023-01-20T09:11:09.907Z,18.08
2023-01-20T09:16:13.227Z,18.24
2023-01-20T09:21:16.015Z,18.36
2023-01-20T09:26:34.850Z,18.49
2023-01-20T09:31:39.086Z,18.64
2023-01-20T09:36:41.957Z,18.71
2023-01-20T09:42:05.592Z,18.73
2023-01-20T09:47:21.433Z,18.82
2023-01-20T09:52:44.152Z,18.88
2023-01-20T09:57:50.111Z,18.95
2023-01-20T10:02:55.878Z,19.01
2023-01-20T10:07:59.828Z,19.11
2023-01-20T10:13:06.371Z,19.13
2023-01-20T10:18:10.349Z,19.19
2023-01-20T10:23:15.475Z,19.24
2023-01-20T10:28:21.564Z,19.29
2023-01-20T10:33:26.226Z,19.33
2023-01-20T10:38:37.389Z,19.39
2023-01-20T10:43:41.640Z,19.46
2023-01-20T10:48:53.756Z,19.48
2023-01-20T10:54:01.481Z,19.43
2023-01-20T10:59:09.384Z,19.41
2023-01-20T11:04:17.915Z,19.50
2023-01-20T11:09:27.187Z,19.53
2023-01-20T11:14:31.499Z,19.57
2023-01-20T11:19:52.610Z,19.44
2023-01-20T11:24:56.112Z,16.78
2023-01-20T11:30:01.305Z,18.18
2023-01-20T11:35:19.954Z,18.65
2023-01-20T11:40:24.024Z,18.89
2023-01-20T11:45:30.276Z,19.04
2023-01-20T11:50:34.521Z,19.23
2023-01-20T11:55:37.464Z,19.37
2023-01-20T12:00:42.146Z,19.48
2023-01-20T12:05:48.273Z,19.58
2023-01-20T12:10:51.077Z,19.64
2023-01-20T12:15:56.203Z,19.67
2023-01-20T12:21:00.118Z,19.68
2023-01-20T12:26:03.606Z,19.69
2023-01-20T12:31:08.092Z,19.67
2023-01-20T12:36:37.579Z,19.67
2023-01-20T12:41:49.548Z,19.65
2023-01-20T12:46:55.839Z,19.69
2023-01-20T12:52:06.150Z,19.73
2023-01-20T12:57:12.844Z,19.74
2023-01-20T13:02:37.532Z,19.81
2023-01-20T13:07:48.940Z,19.88
2023-01-20T13:12:54.916Z,19.92
2023-01-20T13:18:21.681Z,20.02
2023-01-20T13:23:27.051Z,20.09
2023-01-20T13:28:30.726Z,20.13
2023-01-20T13:33:38.059Z,20.13
2023-01-20T13:38:40.998Z,20.17
2023-01-20T13:43:50.172Z,20.21
2023-01-20T13:49:31.941Z,20.27
2023-01-20T13:54:45.337Z,20.31
2023-01-20T13:59:48.116Z,20.42
2023-01-20T14:04:52.493Z,20.43
2023-01-20T14:09:55.636Z,20.48
2023-01-20T14:14:58.425Z,20.53
2023-01-20T14:20:02.567Z,20.51
2023-01-20T14:25:19.919Z,20.63
2023-01-20T14:30:23.795Z,20.71
2023-01-20T14:35:31.017Z,20.72
2023-01-20T14:40:34.786Z,20.75
2023-01-20T14:45:37.584Z,20.79
2023-01-20T14:50:41.757Z,20.85
2023-01-20T14:55:44.712Z,20.86
2023-01-20T15:00:47.651Z,20.86
2023-01-20T15:05:56.264Z,20.87
2023-01-20T15:11:21.212Z,20.92
2023-01-20T15:16:25.952Z,20.97
2023-01-20T15:21:30.300Z,21.00
2023-01-20T15:26:34.449Z,21.08
2023-01-20T15:31:37.249Z,21.09
2023-01-20T15:36:41.478Z,21.11
2023-01-20T15:41:45.116Z,20.70
2023-01-20T15:46:48.063Z,20.97
2023-01-20T15:51:52.302Z,21.08
2023-01-20T15:56:55.141Z,21.16
2023-01-20T16:01:59.323Z,21.28
2023-01-20T16:07:03.657Z,21.34
2023-01-20T16:12:06.763Z,21.38
2023-01-20T16:17:14.418Z,21.48
2023-01-20T16:22:18.739Z,21.52
2023-01-20T16:27:22.286Z,21.57
2023-01-20T16:32:25.088Z,21.64
2023-01-20T16:37:29.307Z,21.67
2023-01-20T16:42:32.263Z,21.78
2023-01-20T16:47:35.065Z,21.83
2023-01-20T16:52:39.472Z,21.89
2023-01-20T16:57:43.095Z,21.93
2023-01-20T17:02:49.540Z,22.01
2023-01-20T17:07:54.363Z,22.01
2023-01-20T17:12:57.745Z,21.96
2023-01-20T17:18:00.611Z,21.95
2023-01-20T17:23:04.913Z,21.91
2023-01-20T17:28:07.733Z,21.88
2023-01-20T17:33:10.587Z,21.83
2023-01-20T17:38:14.831Z,21.76
2023-01-20T17:43:17.685Z,21.65
2023-01-20T17:48:20.571Z,21.54
2023-01-20T17:53:24.735Z,21.42
2023-01-20T17:58:28.681Z,21.32
2023-01-20T18:03:31.494Z,21.25
2023-01-20T18:08:35.794Z,21.25
2023-01-20T18:13:38.688Z,21.19
2023-01-20T18:18:41.778Z,21.14
2023-01-20T18:23:46.519Z,21.05
2023-01-20T18:28:49.425Z,20.96
2023-01-20T18:33:53.253Z,20.85
2023-01-20T18:38:58.326Z,20.81
2023-01-20T18:44:01.157Z,20.75
2023-01-20T18:49:05.114Z,20.72
2023-01-20T18:54:11.250Z,20.68
2023-01-20T18:59:14.103Z,20.64
2023-01-20T19:04:16.983Z,20.58
2023-01-20T19:09:21.328Z,20.59
2023-01-20T19:14:24.232Z,20.56
2023-01-20T19:19:27.034Z,20.52
2023-01-20T19:24:31.230Z,20.45
2023-01-20T19:29:34.093Z,20.46
2023-01-20T19:34:36.939Z,20.40
2023-01-20T19:39:41.196Z,20.41
2023-01-20T19:44:44.136Z,20.42
2023-01-20T19:49:46.997Z,20.39
2023-01-20T19:54:52.014Z,20.36
2023-01-20T19:59:54.962Z,20.34
2023-01-20T20:04:58.102Z,20.30
2023-01-20T20:10:02.378Z,20.33
2023-01-20T20:15:05.930Z,20.34
2023-01-20T20:20:09.902Z,20.36
2023-01-20T20:25:14.103Z,20.36
2023-01-20T20:30:19.151Z,20.34
2023-01-20T20:35:21.954Z,20.37
2023-01-20T20:40:26.839Z,20.33
2023-01-20T20:45:29.609Z,20.32
2023-01-20T20:50:32.458Z,20.32
2023-01-20T20:55:39.796Z,20.34
2023-01-20T21:00:42.670Z,20.28
2023-01-20T21:05:46.937Z,20.30
2023-01-20T21:10:51.098Z,20.32
2023-01-20T21:15:59.426Z,20.30
2023-01-20T21:21:02.441Z,20.35
2023-01-20T21:26:09.730Z,20.26
2023-01-20T21:31:13.723Z,20.29
2023-01-20T21:36:16.625Z,20.31
2023-01-20T21:41:20.928Z,20.32
2023-01-20T21:46:24.775Z,20.33
2023-01-20T21:51:45.262Z,20.32
2023-01-20T21:56:49.570Z,20.33
2023-01-20T22:01:52.389Z,20.31
2023-01-20T22:06:55.218Z,20.19
2023-01-20T22:11:59.381Z,20.22
2023-01-20T22:17:02.158Z,20.30
2023-01-20T22:22:05.092Z,20.27
2023-01-20T22:27:09.290Z,20.27
2023-01-20T22:32:12.101Z,20.27
2023-01-20T22:37:14.892Z,20.31
2023-01-20T22:42:19.071Z,20.33
2023-01-20T22:47:21.917Z,20.33
2023-01-20T22:52:24.810Z,20.39
2023-01-20T22:57:30.487Z,20.35
2023-01-20T23:02:33.348Z,20.34
2023-01-20T23:07:37.491Z,20.37
2023-01-20T23:12:41.743Z,20.37
2023-01-20T23:17:44.483Z,20.38
2023-01-20T23:22:47.233Z,20.36
2023-01-20T23:27:51.335Z,20.37
2023-01-20T23:32:54.122Z,20.32
2023-01-20T23:37:56.882Z,20.34
2023-01-20T23:43:01.321Z,20.31
2023-01-20T23:48:04.146Z,20.33
2023-01-20T23:53:06.953Z,20.28
2023-01-20T23:58:11.098Z,20.32
